Accueil
METAR-TAF:

METAR-TAF

Aéroports :

Aéroport international de Norwich

Norwich, Angleterre

latitude: 52-38N, longitude: 001-18E, altitude: 14 m

Observation

Le bulletin a été fait il y a 23 minutes, à 09:50 UTC
Vent 3 kt de direction variable
Température 17°C
Humidité 68%
Pression 1012 hPa
Visibilité 10 km ou plus
Nuages épars à une hauteur de 2000 ft
Nuages épars à une hauteur de 2600 ft

METAR: EGSH 300950Z VRB03KT 9999 SCT020 SCT026 17/11 Q1012

Heure: 11:13 (10:13 UTC)

Prévision

Le bulletin a été fait il y a 2 heures et 19 minutes, à 07:54 UTC
Prévision valable du 30 à 09 UTC au 30 à 18 UTC
Vent 5 kt de sud/sud-ouest
Visibilité 10 km ou plus
Nuages épars à une hauteur de 3500 ft
Probabilité 40% :
Temporairement
du 30 à 09 UTC au 30 à 18 UTC
Visibilité: 6000 m
Nuages fragmentés à une hauteur de 1400 ft
averses de pluie

TAF: EGSH 300754Z 3009/3018 20005KT 9999 SCT035 PROB40 TEMPO 3009/3018 6000 SHRA BKN014

Observations et prévisions météorologiques de plus de 4000 aéroports (messages METAR et TAF).

Les stations disponibles sont représentées par des disques jaunes et rouges sur la carte.

Passer la souris dessus pour voir le nom de la station.

Cliquer dessus pour voir les observations et prévisions météorologiques.

Pour changer de carte: cliquez sur les boutons verts avec une croix noire pour zoomer, sur le bouton vert avec un tiret pour effectuer un zoom arrière, ou sur les flèches vertes pour les cartes adjacentes.


METAR-TAF: